createdAt,value
2023-04-22T00:00:18.008Z,10.65
2023-04-22T00:02:45.930Z,10.34
2023-04-22T00:05:15.925Z,10.68
2023-04-22T00:07:45.791Z,10.71
2023-04-22T00:10:13.161Z,10.71
2023-04-22T00:12:40.454Z,10.58
2023-04-22T00:15:08.311Z,10.66
2023-04-22T00:17:35.339Z,10.57
2023-04-22T00:20:02.382Z,10.63
2023-04-22T00:22:31.562Z,10.46
2023-04-22T00:24:58.554Z,10.34
2023-04-22T00:27:25.694Z,10.09
2023-04-22T00:29:52.939Z,10.32
2023-04-22T00:32:22.589Z,10.18
2023-04-22T00:34:50.679Z,10.34
2023-04-22T00:37:18.223Z,10.25
2023-04-22T00:39:45.853Z,10.34
2023-04-22T00:42:13.905Z,10.21
2023-04-22T00:44:41.278Z,10.22
2023-04-22T00:47:10.025Z,10.09
2023-04-22T00:49:37.614Z,10.02
2023-04-22T00:52:04.878Z,10.13
2023-04-22T00:54:33.950Z,10.10
2023-04-22T00:57:01.130Z,10.00
2023-04-22T00:59:28.175Z,10.08
2023-04-22T01:01:56.214Z,9.99
2023-04-22T01:04:23.456Z,9.96
2023-04-22T01:06:52.165Z,9.97
2023-04-22T01:09:21.034Z,9.92
2023-04-22T01:11:48.200Z,9.97
2023-04-22T01:14:15.912Z,10.03
2023-04-22T01:16:44.229Z,9.87
2023-04-22T01:19:11.967Z,9.71
2023-04-22T01:21:40.898Z,9.82
2023-04-22T01:24:09.061Z,9.76
2023-04-22T01:26:37.005Z,9.64
2023-04-22T01:29:05.384Z,9.69
2023-04-22T01:31:33.559Z,9.54
2023-04-22T01:34:00.767Z,9.56
2023-04-22T01:36:28.127Z,9.50
2023-04-22T01:38:55.761Z,9.40
2023-04-22T01:41:22.738Z,9.41
2023-04-22T01:43:50.729Z,9.36
2023-04-22T01:46:18.355Z,9.34
2023-04-22T01:48:50.588Z,9.30
2023-04-22T01:51:20.922Z,9.23
2023-04-22T01:53:48.990Z,9.23
2023-04-22T01:56:16.513Z,9.09
2023-04-22T01:58:43.841Z,9.11
2023-04-22T02:01:12.072Z,9.09
2023-04-22T02:03:39.385Z,9.08
2023-04-22T02:06:06.848Z,9.16
2023-04-22T02:08:33.972Z,9.25
2023-04-22T02:11:01.245Z,9.21
2023-04-22T02:13:39.199Z,9.25
2023-04-22T02:16:08.630Z,9.23
2023-04-22T02:18:36.014Z,9.25
2023-04-22T02:21:03.250Z,9.21
2023-04-22T02:23:30.600Z,9.22
2023-04-22T02:25:57.674Z,9.21
2023-04-22T02:28:25.965Z,9.19
2023-04-22T02:30:53.110Z,9.17
2023-04-22T02:33:21.423Z,9.20
2023-04-22T02:35:48.469Z,9.24
2023-04-22T02:38:19.359Z,9.26
2023-04-22T02:40:47.266Z,9.22
2023-04-22T02:43:15.060Z,9.17
2023-04-22T02:45:42.378Z,9.19
2023-04-22T02:48:10.229Z,9.14
2023-04-22T02:50:37.403Z,9.13
2023-04-22T02:53:04.568Z,9.12
2023-04-22T02:55:31.639Z,9.11
2023-04-22T02:57:58.888Z,9.13
2023-04-22T03:00:26.278Z,9.17
2023-04-22T03:02:54.103Z,9.21
2023-04-22T03:05:25.888Z,9.23
2023-04-22T03:07:53.589Z,9.22
2023-04-22T03:10:21.436Z,9.36
2023-04-22T03:12:49.186Z,9.48
2023-04-22T03:15:19.623Z,9.62
2023-04-22T03:17:49.000Z,9.72
2023-04-22T03:20:17.133Z,9.70
2023-04-22T03:22:44.124Z,9.77
2023-04-22T03:25:13.003Z,9.78
2023-04-22T03:27:41.058Z,9.85
2023-04-22T03:30:08.585Z,10.05
2023-04-22T03:32:35.786Z,9.86
2023-04-22T03:35:15.833Z,10.28
2023-04-22T03:37:43.716Z,10.31
2023-04-22T03:40:13.957Z,10.39
2023-04-22T03:42:43.405Z,10.51
2023-04-22T03:45:11.232Z,10.65
2023-04-22T03:47:43.840Z,10.77
2023-04-22T03:50:20.630Z,10.89
2023-04-22T03:52:49.089Z,11.30
2023-04-22T03:55:19.715Z,11.65
2023-04-22T03:57:48.275Z,11.88
2023-04-22T04:00:15.400Z,12.11
2023-04-22T04:02:45.355Z,12.19
2023-04-22T04:05:16.615Z,12.21
2023-04-22T04:07:44.094Z,12.24
2023-04-22T04:10:11.872Z,12.20
2023-04-22T04:12:38.944Z,12.25
2023-04-22T04:15:07.167Z,11.88
2023-04-22T04:17:35.176Z,12.25
2023-04-22T04:20:04.099Z,12.64
2023-04-22T04:22:32.391Z,13.02
2023-04-22T04:25:01.961Z,13.38
2023-04-22T04:27:39.285Z,13.80
2023-04-22T04:30:07.412Z,13.82
2023-04-22T04:32:39.993Z,13.73
2023-04-22T04:35:10.058Z,13.55
2023-04-22T04:37:40.475Z,13.47
2023-04-22T04:40:12.333Z,13.52
2023-04-22T04:43:02.736Z,13.52
2023-04-22T04:45:39.260Z,13.73
2023-04-22T04:48:08.099Z,13.80
2023-04-22T04:50:37.965Z,13.89
2023-04-22T04:53:07.283Z,14.09
2023-04-22T04:55:39.059Z,14.48
2023-04-22T04:58:12.716Z,14.75
2023-04-22T05:00:40.084Z,14.88
2023-04-22T05:03:08.086Z,15.17
2023-04-22T05:05:35.860Z,15.14
2023-04-22T05:08:03.031Z,15.06
2023-04-22T05:10:31.698Z,15.14
2023-04-22T05:12:58.939Z,15.30
2023-04-22T05:15:26.840Z,15.48
2023-04-22T05:17:54.499Z,15.61
2023-04-22T05:20:21.594Z,15.72
2023-04-22T05:22:48.640Z,15.73
2023-04-22T05:25:16.731Z,15.85
2023-04-22T05:27:53.244Z,16.25
2023-04-22T05:30:20.391Z,16.59
2023-04-22T05:32:48.506Z,16.76
2023-04-22T05:35:15.682Z,16.78
2023-04-22T05:37:42.694Z,16.88
2023-04-22T05:40:10.185Z,17.11
2023-04-22T05:42:37.471Z,17.39
2023-04-22T05:45:04.953Z,17.42
2023-04-22T05:47:33.218Z,17.49
2023-04-22T05:50:00.655Z,17.55
2023-04-22T05:52:34.324Z,17.66
2023-04-22T05:55:09.611Z,17.75
2023-04-22T05:57:36.606Z,18.18
2023-04-22T06:00:09.363Z,18.39
2023-04-22T06:02:40.917Z,18.52
2023-04-22T06:05:09.346Z,18.64
2023-04-22T06:07:36.627Z,18.72
2023-04-22T06:10:07.117Z,19.33
2023-04-22T06:12:35.320Z,20.64
2023-04-22T06:15:02.652Z,21.86
2023-04-22T06:17:32.680Z,23.10
2023-04-22T06:20:03.583Z,24.26
2023-04-22T06:22:31.793Z,25.24
2023-04-22T06:24:58.868Z,25.68
2023-04-22T06:27:26.588Z,26.38
2023-04-22T06:29:53.683Z,26.93
2023-04-22T06:32:20.873Z,26.29
2023-04-22T06:34:47.993Z,26.10
2023-04-22T06:37:15.165Z,25.40
2023-04-22T06:39:42.364Z,24.53
2023-04-22T06:42:48.331Z,23.67
2023-04-22T06:45:45.242Z,23.88
2023-04-22T06:48:30.814Z,23.74
2023-04-22T06:51:36.489Z,23.75
2023-04-22T06:54:04.012Z,23.68
2023-04-22T06:56:31.177Z,23.26
2023-04-22T06:58:58.216Z,22.88
2023-04-22T07:01:26.379Z,23.26
2023-04-22T07:03:53.673Z,23.61
2023-04-22T07:06:21.293Z,24.22
2023-04-22T07:08:49.016Z,24.13
2023-04-22T07:11:16.304Z,23.23
2023-04-22T07:13:52.815Z,21.70
2023-04-22T07:16:20.042Z,21.00
2023-04-22T07:18:47.860Z,20.34
2023-04-22T07:21:15.053Z,20.18
2023-04-22T07:23:42.080Z,20.72
2023-04-22T07:26:09.204Z,21.86
2023-04-22T07:28:36.373Z,22.72
2023-04-22T07:31:03.498Z,22.47
2023-04-22T07:33:30.553Z,22.06
2023-04-22T07:35:57.589Z,21.26
2023-04-22T07:38:25.095Z,20.92
2023-04-22T07:40:52.096Z,21.09
2023-04-22T07:43:19.213Z,21.54
2023-04-22T07:45:46.262Z,21.58
2023-04-22T07:48:13.314Z,21.40
2023-04-22T07:50:40.490Z,21.16
2023-04-22T07:53:07.543Z,20.81
2023-04-22T07:55:34.562Z,20.40
2023-04-22T07:58:06.233Z,20.09
2023-04-22T08:00:36.388Z,19.75
2023-04-22T08:03:04.309Z,19.36
2023-04-22T08:05:31.724Z,19.08
2023-04-22T08:07:58.911Z,18.75
2023-04-22T08:10:26.303Z,18.51
2023-04-22T08:12:53.400Z,18.41
2023-04-22T08:15:20.375Z,18.23
2023-04-22T08:17:47.552Z,18.07
2023-04-22T08:20:15.632Z,18.07
2023-04-22T08:22:45.441Z,18.20
2023-04-22T08:25:13.101Z,18.23
2023-04-22T08:27:40.461Z,18.28
2023-04-22T08:30:07.985Z,18.07
2023-04-22T08:32:35.109Z,17.77
2023-04-22T08:35:05.444Z,17.88
2023-04-22T08:37:34.355Z,17.57
2023-04-22T08:40:01.735Z,17.53
2023-04-22T08:42:31.560Z,17.54
2023-04-22T08:44:58.780Z,17.60
2023-04-22T08:47:26.702Z,17.81
2023-04-22T08:49:55.882Z,17.88
2023-04-22T08:52:22.891Z,17.98
2023-04-22T08:54:50.080Z,18.16
2023-04-22T08:57:18.122Z,18.43
2023-04-22T08:59:45.631Z,19.41
2023-04-22T09:02:19.389Z,20.48
2023-04-22T09:04:51.187Z,20.99
2023-04-22T09:07:27.101Z,21.08
2023-04-22T09:09:56.232Z,20.79
2023-04-22T09:12:24.923Z,20.43
2023-04-22T09:14:52.996Z,20.06
2023-04-22T09:17:31.473Z,19.66
2023-04-22T09:20:00.420Z,19.32
2023-04-22T09:22:42.301Z,19.30
2023-04-22T09:25:20.425Z,19.04
2023-04-22T09:27:55.433Z,18.68
2023-04-22T09:30:37.857Z,18.72
2023-04-22T09:33:08.010Z,18.54
2023-04-22T09:35:37.600Z,18.23
2023-04-22T09:38:08.316Z,18.29
2023-04-22T09:40:36.520Z,18.70
2023-04-22T09:43:06.271Z,20.20
2023-04-22T09:45:34.372Z,21.85
2023-04-22T09:48:12.377Z,23.41
2023-04-22T09:50:41.239Z,23.39
2023-04-22T09:53:10.926Z,23.01
2023-04-22T09:55:41.674Z,22.13
2023-04-22T09:58:13.899Z,21.71
2023-04-22T10:00:49.261Z,21.33
2023-04-22T10:03:17.422Z,21.03
2023-04-22T10:05:46.286Z,20.86
2023-04-22T10:08:15.468Z,20.52
2023-04-22T10:10:43.414Z,20.39
2023-04-22T10:13:10.554Z,20.32
2023-04-22T10:15:50.558Z,20.20
2023-04-22T10:18:26.941Z,20.24
2023-04-22T10:20:56.166Z,20.51
2023-04-22T10:23:24.960Z,20.56
2023-04-22T10:25:56.635Z,20.06
2023-04-22T10:28:27.709Z,20.15
2023-04-22T10:30:55.011Z,20.02
2023-04-22T10:33:23.885Z,19.77
2023-04-22T10:36:15.237Z,19.79
2023-04-22T10:39:02.152Z,19.55
2023-04-22T10:41:30.162Z,19.49
2023-04-22T10:44:01.998Z,19.15
2023-04-22T10:46:35.538Z,19.01
2023-04-22T10:49:12.821Z,19.01
2023-04-22T10:51:44.168Z,19.00
2023-04-22T10:54:31.847Z,19.18
2023-04-22T10:57:03.697Z,19.18
2023-04-22T10:59:32.941Z,19.42
2023-04-22T11:02:07.674Z,19.46
2023-04-22T11:04:35.321Z,19.60
2023-04-22T11:07:20.927Z,19.62
2023-04-22T11:09:51.202Z,19.58
2023-04-22T11:12:39.231Z,19.82
2023-04-22T11:15:07.804Z,19.75
2023-04-22T11:17:36.595Z,19.82
2023-04-22T11:20:05.983Z,19.76
2023-04-22T11:22:37.372Z,19.73
2023-04-22T11:25:05.659Z,19.61
2023-04-22T11:27:33.204Z,19.45
2023-04-22T11:30:16.324Z,19.52
2023-04-22T11:32:58.451Z,19.76
2023-04-22T11:35:35.483Z,19.93
2023-04-22T11:38:03.336Z,20.26
2023-04-22T11:40:33.791Z,20.26
2023-04-22T11:43:04.373Z,20.32
2023-04-22T11:45:34.810Z,20.15
2023-04-22T11:48:03.100Z,20.08
2023-04-22T11:50:33.703Z,20.14
2023-04-22T11:53:02.009Z,20.18
2023-04-22T11:55:34.991Z,20.21
2023-04-22T11:58:09.680Z,20.02
2023-04-22T12:00:41.445Z,20.27
2023-04-22T12:03:16.176Z,20.30
2023-04-22T12:05:45.862Z,20.31
2023-04-22T12:08:14.611Z,20.32
2023-04-22T12:10:57.529Z,20.30
2023-04-22T12:13:46.365Z,20.40
2023-04-22T12:16:15.871Z,20.25
2023-04-22T12:18:54.356Z,20.31
2023-04-22T12:21:24.893Z,20.04
2023-04-22T12:23:59.201Z,20.02
2023-04-22T12:26:27.927Z,20.01
2023-04-22T12:28:57.935Z,19.97
2023-04-22T12:31:25.305Z,19.76
2023-04-22T12:33:53.858Z,19.70
2023-04-22T12:36:21.649Z,19.58
2023-04-22T12:38:49.216Z,19.27
2023-04-22T12:41:16.651Z,18.94
2023-04-22T12:43:43.662Z,18.67
2023-04-22T12:46:11.032Z,18.61
2023-04-22T12:48:38.310Z,18.59
2023-04-22T12:51:06.954Z,18.62
2023-04-22T12:53:34.884Z,18.60
2023-04-22T12:56:02.205Z,18.73
2023-04-22T12:58:29.453Z,18.72
2023-04-22T13:00:56.618Z,18.77
2023-04-22T13:03:24.100Z,18.33
2023-04-22T13:05:52.337Z,18.74
2023-04-22T13:08:19.497Z,18.82
2023-04-22T13:10:46.772Z,18.73
2023-04-22T13:13:18.610Z,18.77
2023-04-22T13:15:54.404Z,18.91
2023-04-22T13:18:23.323Z,18.72
2023-04-22T13:20:51.400Z,18.89
2023-04-22T13:23:21.988Z,18.94
2023-04-22T13:25:56.789Z,18.98
2023-04-22T13:28:23.953Z,18.96
2023-04-22T13:30:51.138Z,19.04
2023-04-22T13:33:18.167Z,18.89
2023-04-22T13:35:45.414Z,18.93
2023-04-22T13:38:12.592Z,18.97
2023-04-22T13:40:39.609Z,18.94
2023-04-22T13:43:09.404Z,18.84
2023-04-22T13:45:36.470Z,18.79
2023-04-22T13:48:03.863Z,18.94
2023-04-22T13:50:30.961Z,19.00
2023-04-22T13:52:58.136Z,18.96
2023-04-22T13:55:26.777Z,18.96
2023-04-22T13:57:53.886Z,18.90
2023-04-22T14:00:21.272Z,18.83
2023-04-22T14:02:48.965Z,18.78
2023-04-22T14:05:16.548Z,18.79
2023-04-22T14:07:43.641Z,18.74
2023-04-22T14:10:12.283Z,18.50
2023-04-22T14:12:40.258Z,18.64
2023-04-22T14:15:11.046Z,18.59
2023-04-22T14:17:39.816Z,18.57
2023-04-22T14:20:08.883Z,18.61
2023-04-22T14:22:35.965Z,18.61
2023-04-22T14:25:03.137Z,18.49
2023-04-22T14:27:31.708Z,18.65
2023-04-22T14:29:59.029Z,18.33
2023-04-22T14:32:26.103Z,18.61
2023-04-22T14:34:53.330Z,18.64
2023-04-22T14:37:21.629Z,18.63
2023-04-22T14:39:48.900Z,18.53
2023-04-22T14:42:18.252Z,18.47
2023-04-22T14:44:45.385Z,18.44
2023-04-22T14:47:12.397Z,18.40
2023-04-22T14:49:39.539Z,17.96
2023-04-22T14:52:07.080Z,18.14
2023-04-22T14:54:34.583Z,18.08
2023-04-22T14:57:02.950Z,18.08
2023-04-22T14:59:30.036Z,17.58
2023-04-22T15:01:57.226Z,17.93
2023-04-22T15:04:24.772Z,17.89
2023-04-22T15:06:53.371Z,17.94
2023-04-22T15:09:20.741Z,17.64
2023-04-22T15:11:47.777Z,17.58
2023-04-22T15:14:16.702Z,17.71
2023-04-22T15:16:44.485Z,17.74
2023-04-22T15:19:11.712Z,17.54
2023-04-22T15:21:39.112Z,17.58
2023-04-22T15:24:06.253Z,17.67
2023-04-22T15:26:34.027Z,17.58
2023-04-22T15:29:01.315Z,17.55
2023-04-22T15:31:28.541Z,17.52
2023-04-22T15:33:55.543Z,17.45
2023-04-22T15:36:22.620Z,17.40
2023-04-22T15:38:55.300Z,17.25
2023-04-22T15:41:24.191Z,17.08
2023-04-22T15:43:52.063Z,17.15
2023-04-22T15:46:19.842Z,17.20
2023-04-22T15:48:48.612Z,17.16
2023-04-22T15:51:16.877Z,17.06
2023-04-22T15:53:46.793Z,17.07
2023-04-22T15:56:15.446Z,17.04
2023-04-22T15:58:42.550Z,16.92
2023-04-22T16:01:18.688Z,16.89
2023-04-22T16:03:50.249Z,16.95
2023-04-22T16:06:18.730Z,16.86
2023-04-22T16:08:46.277Z,16.92
2023-04-22T16:11:15.396Z,16.89
2023-04-22T16:13:42.942Z,16.76
2023-04-22T16:16:10.240Z,16.77
2023-04-22T16:18:38.053Z,16.77
2023-04-22T16:21:06.734Z,16.75
2023-04-22T16:23:34.812Z,16.70
2023-04-22T16:26:02.946Z,16.68
2023-04-22T16:28:30.109Z,16.56
2023-04-22T16:30:57.249Z,16.55
2023-04-22T16:33:25.551Z,16.62
2023-04-22T16:35:52.581Z,16.53
2023-04-22T16:38:19.704Z,16.44
2023-04-22T16:40:46.684Z,16.40
2023-04-22T16:43:13.837Z,16.46
2023-04-22T16:45:41.166Z,16.39
2023-04-22T16:48:08.193Z,16.37
2023-04-22T16:50:35.408Z,16.26
2023-04-22T16:53:02.467Z,16.25
2023-04-22T16:55:29.500Z,16.16
2023-04-22T16:57:58.496Z,16.15
2023-04-22T17:00:25.610Z,16.01
2023-04-22T17:02:52.896Z,15.99
2023-04-22T17:05:20.112Z,15.84
2023-04-22T17:07:47.165Z,15.73
2023-04-22T17:10:14.365Z,15.80
2023-04-22T17:12:41.430Z,15.78
2023-04-22T17:15:08.943Z,15.43
2023-04-22T17:17:36.111Z,15.69
2023-04-22T17:20:03.258Z,15.64
2023-04-22T17:22:31.241Z,15.62
2023-04-22T17:24:58.992Z,15.62
2023-04-22T17:27:26.863Z,15.45
2023-04-22T17:29:53.928Z,15.49
2023-04-22T17:32:21.040Z,15.32
2023-04-22T17:34:48.160Z,15.41
2023-04-22T17:37:15.344Z,15.42
2023-04-22T17:39:42.379Z,15.33
2023-04-22T17:42:09.432Z,15.25
2023-04-22T17:44:36.500Z,15.05
2023-04-22T17:47:05.192Z,15.17
2023-04-22T17:49:33.885Z,15.06
2023-04-22T17:52:01.078Z,15.07
2023-04-22T17:54:28.206Z,14.93
2023-04-22T17:56:55.257Z,15.01
2023-04-22T17:59:22.332Z,14.98
2023-04-22T18:01:49.409Z,14.78
2023-04-22T18:04:16.681Z,14.83
2023-04-22T18:06:43.804Z,14.74
2023-04-22T18:09:10.855Z,14.73
2023-04-22T18:11:37.914Z,14.70
2023-04-22T18:14:05.040Z,14.57
2023-04-22T18:16:32.551Z,14.46
2023-04-22T18:19:02.358Z,14.32
2023-04-22T18:21:29.853Z,14.37
2023-04-22T18:23:56.926Z,14.31
2023-04-22T18:26:24.051Z,14.27
2023-04-22T18:28:51.074Z,14.22
2023-04-22T18:31:18.114Z,14.19
2023-04-22T18:33:45.216Z,14.18
2023-04-22T18:36:12.301Z,14.12
2023-04-22T18:38:39.350Z,14.11
2023-04-22T18:41:06.972Z,14.15
2023-04-22T18:43:34.135Z,14.11
2023-04-22T18:46:01.239Z,14.08
2023-04-22T18:48:28.280Z,14.03
2023-04-22T18:50:55.449Z,13.94
2023-04-22T18:53:22.598Z,13.88
2023-04-22T18:55:49.724Z,13.45
2023-04-22T18:58:16.836Z,13.76
2023-04-22T19:00:43.938Z,13.75
2023-04-22T19:03:11.402Z,13.77
2023-04-22T19:05:39.035Z,13.67
2023-04-22T19:08:06.064Z,13.60
2023-04-22T19:10:33.313Z,13.61
2023-04-22T19:13:00.332Z,13.49
2023-04-22T19:15:27.390Z,13.56
2023-04-22T19:17:54.961Z,13.53
2023-04-22T19:20:22.192Z,13.53
2023-04-22T19:22:49.498Z,13.49
2023-04-22T19:25:18.820Z,13.47
2023-04-22T19:27:47.508Z,13.45
2023-04-22T19:30:15.002Z,13.42
2023-04-22T19:32:42.680Z,13.33
2023-04-22T19:35:12.585Z,13.17
2023-04-22T19:37:39.762Z,13.28
2023-04-22T19:40:07.455Z,13.23
2023-04-22T19:42:34.506Z,13.15
2023-04-22T19:45:01.495Z,13.07
2023-04-22T19:47:31.697Z,13.02
2023-04-22T19:49:59.160Z,13.07
2023-04-22T19:52:27.813Z,13.02
2023-04-22T19:54:58.890Z,13.07
2023-04-22T19:57:26.572Z,13.02
2023-04-22T19:59:54.402Z,13.01
2023-04-22T20:02:23.705Z,12.89
2023-04-22T20:04:50.986Z,12.93
2023-04-22T20:07:19.390Z,12.96
2023-04-22T20:09:46.842Z,12.91
2023-04-22T20:12:14.191Z,12.88
2023-04-22T20:14:41.880Z,12.85
2023-04-22T20:17:09.817Z,12.72
2023-04-22T20:19:37.693Z,12.79
2023-04-22T20:22:06.769Z,12.75
2023-04-22T20:24:38.964Z,12.73
2023-04-22T20:27:06.829Z,12.32
2023-04-22T20:29:36.165Z,12.42
2023-04-22T20:32:05.148Z,12.56
2023-04-22T20:34:36.282Z,12.51
2023-04-22T20:37:06.095Z,12.36
2023-04-22T20:39:34.520Z,12.31
2023-04-22T20:42:03.010Z,12.21
2023-04-22T20:44:30.631Z,12.23
2023-04-22T20:46:58.977Z,12.19
2023-04-22T20:49:26.642Z,12.02
2023-04-22T20:51:54.375Z,12.03
2023-04-22T20:54:28.975Z,11.86
2023-04-22T20:56:57.896Z,12.19
2023-04-22T20:59:25.052Z,12.15
2023-04-22T21:01:53.824Z,11.54
2023-04-22T21:04:23.997Z,12.09
2023-04-22T21:06:52.437Z,11.97
2023-04-22T21:09:24.990Z,12.04
2023-04-22T21:11:53.077Z,11.75
2023-04-22T21:14:22.352Z,11.98
2023-04-22T21:17:05.328Z,11.99
2023-04-22T21:19:34.117Z,11.86
2023-04-22T21:22:05.811Z,11.82
2023-04-22T21:24:35.190Z,11.76
2023-04-22T21:27:03.128Z,11.81
2023-04-22T21:29:30.542Z,11.68
2023-04-22T21:32:07.226Z,11.58
2023-04-22T21:34:36.227Z,11.54
2023-04-22T21:37:04.607Z,11.52
2023-04-22T21:39:31.643Z,11.55
2023-04-22T21:41:58.992Z,11.55
2023-04-22T21:44:26.110Z,11.56
2023-04-22T21:46:53.195Z,11.58
2023-04-22T21:49:20.722Z,11.53
2023-04-22T21:51:48.147Z,11.49
2023-04-22T21:54:15.156Z,11.44
2023-04-22T21:56:42.368Z,11.54
2023-04-22T21:59:09.451Z,11.46
2023-04-22T22:01:36.485Z,11.33
2023-04-22T22:04:03.847Z,11.32
2023-04-22T22:06:31.651Z,11.26
2023-04-22T22:08:58.960Z,11.23
2023-04-22T22:11:30.689Z,11.00
2023-04-22T22:13:58.959Z,11.17
2023-04-22T22:16:26.208Z,11.26
2023-04-22T22:18:53.433Z,11.07
2023-04-22T22:21:20.553Z,11.08
2023-04-22T22:23:47.628Z,11.02
2023-04-22T22:26:14.675Z,11.00
2023-04-22T22:28:41.709Z,11.00
2023-04-22T22:31:08.754Z,11.01
2023-04-22T22:33:35.834Z,10.92
2023-04-22T22:36:02.837Z,10.92
2023-04-22T22:38:29.914Z,10.72
2023-04-22T22:40:56.901Z,10.92
2023-04-22T22:43:23.977Z,10.91
2023-04-22T22:45:51.176Z,10.89
2023-04-22T22:48:18.336Z,10.87
2023-04-22T22:50:46.569Z,10.82
2023-04-22T22:53:13.580Z,10.78
2023-04-22T22:55:40.681Z,10.59
2023-04-22T22:58:07.769Z,10.56
2023-04-22T23:00:34.880Z,10.66
2023-04-22T23:03:02.219Z,10.66
2023-04-22T23:05:29.418Z,10.66
2023-04-22T23:07:56.453Z,10.56
2023-04-22T23:10:23.559Z,10.61
2023-04-22T23:12:50.718Z,10.60
2023-04-22T23:15:17.763Z,10.25
2023-04-22T23:17:45.927Z,10.48
2023-04-22T23:20:14.239Z,10.53
2023-04-22T23:22:43.501Z,10.50
2023-04-22T23:25:12.225Z,10.55
2023-04-22T23:27:39.488Z,10.53
2023-04-22T23:30:08.187Z,10.48
2023-04-22T23:32:39.147Z,10.40
2023-04-22T23:35:08.519Z,10.40
2023-04-22T23:37:37.856Z,10.27
2023-04-22T23:40:06.851Z,10.36
2023-04-22T23:42:33.904Z,10.34
2023-04-22T23:45:00.990Z,10.22
2023-04-22T23:47:28.420Z,10.25
2023-04-22T23:49:55.931Z,10.30
2023-04-22T23:52:23.682Z,10.27
2023-04-22T23:54:51.922Z,10.26
2023-04-22T23:57:19.231Z,10.24
2023-04-22T23:59:46.785Z,10.20
